sensor_id;sensor_type;location;lat;lon;timestamp;temperature;humidity
64869;DHT22;51349;52.424;10.840;2023-02-11T00:04:54;4.60;99.90
64869;DHT22;51349;52.424;10.840;2023-02-11T00:09:55;4.70;99.90
64869;DHT22;51349;52.424;10.840;2023-02-11T00:14:56;4.80;99.90
64869;DHT22;51349;52.424;10.840;2023-02-11T00:19:56;4.90;99.90
64869;DHT22;51349;52.424;10.840;2023-02-11T00:24:57;5.00;99.90
64869;DHT22;51349;52.424;10.840;2023-02-11T00:29:58;5.00;99.90
64869;DHT22;51349;52.424;10.840;2023-02-11T00:34:59;5.20;99.90
64869;DHT22;51349;52.424;10.840;2023-02-11T00:40:01;5.20;99.90
64869;DHT22;51349;52.424;10.840;2023-02-11T00:45:02;5.20;99.90
64869;DHT22;51349;52.424;10.840;2023-02-11T00:50:04;5.20;99.90
64869;DHT22;51349;52.424;10.840;2023-02-11T00:55:05;5.20;99.90
64869;DHT22;51349;52.424;10.840;2023-02-11T01:00:06;5.20;99.90
64869;DHT22;51349;52.424;10.840;2023-02-11T01:05:07;5.20;99.90
64869;DHT22;51349;52.424;10.840;2023-02-11T01:10:08;5.20;99.90
64869;DHT22;51349;52.424;10.840;2023-02-11T01:15:13;5.30;99.90
64869;DHT22;51349;52.424;10.840;2023-02-11T01:20:20;5.30;99.90
64869;DHT22;51349;52.424;10.840;2023-02-11T01:25:22;5.30;99.90
64869;DHT22;51349;52.424;10.840;2023-02-11T01:30:22;5.40;99.90
64869;DHT22;51349;52.424;10.840;2023-02-11T01:35:23;5.30;99.90
64869;DHT22;51349;52.424;10.840;2023-02-11T01:40:24;5.40;99.90
64869;DHT22;51349;52.424;10.840;2023-02-11T01:50:45;5.40;99.90
64869;DHT22;51349;52.424;10.840;2023-02-11T01:55:47;5.50;99.90
64869;DHT22;51349;52.424;10.840;2023-02-11T02:01:07;5.40;99.90
64869;DHT22;51349;52.424;10.840;2023-02-11T02:06:21;5.40;99.90
64869;DHT22;51349;52.424;10.840;2023-02-11T02:11:24;5.40;99.90
64869;DHT22;51349;52.424;10.840;2023-02-11T02:16:31;5.40;99.90
64869;DHT22;51349;52.424;10.840;2023-02-11T02:32:35;5.50;99.90
64869;DHT22;51349;52.424;10.840;2023-02-11T02:42:45;5.50;99.90
64869;DHT22;51349;52.424;10.840;2023-02-11T02:47:47;5.50;99.90
64869;DHT22;51349;52.424;10.840;2023-02-11T02:53:12;5.50;99.90
64869;DHT22;51349;52.424;10.840;2023-02-11T03:09:25;5.50;99.90
64869;DHT22;51349;52.424;10.840;2023-02-11T03:14:29;5.50;99.90
64869;DHT22;51349;52.424;10.840;2023-02-11T03:19:35;5.60;99.90
64869;DHT22;51349;52.424;10.840;2023-02-11T03:24:38;5.60;99.90
64869;DHT22;51349;52.424;10.840;2023-02-11T03:29:54;5.60;99.90
64869;DHT22;51349;52.424;10.840;2023-02-11T03:35:17;5.60;99.90
64869;DHT22;51349;52.424;10.840;2023-02-11T03:40:22;5.60;99.90
64869;DHT22;51349;52.424;10.840;2023-02-11T03:45:25;5.60;99.90
64869;DHT22;51349;52.424;10.840;2023-02-11T03:50:27;5.60;99.90
64869;DHT22;51349;52.424;10.840;2023-02-11T03:55:32;5.60;99.90
64869;DHT22;51349;52.424;10.840;2023-02-11T04:00:38;5.60;99.90
64869;DHT22;51349;52.424;10.840;2023-02-11T04:05:39;5.60;99.90
64869;DHT22;51349;52.424;10.840;2023-02-11T04:10:40;5.60;99.90
64869;DHT22;51349;52.424;10.840;2023-02-11T04:15:40;5.60;99.90
64869;DHT22;51349;52.424;10.840;2023-02-11T04:20:41;5.60;99.90
64869;DHT22;51349;52.424;10.840;2023-02-11T04:25:42;5.60;99.90
64869;DHT22;51349;52.424;10.840;2023-02-11T04:30:43;5.60;99.90
64869;DHT22;51349;52.424;10.840;2023-02-11T04:35:44;5.60;99.90
64869;DHT22;51349;52.424;10.840;2023-02-11T04:40:44;5.60;99.90
64869;DHT22;51349;52.424;10.840;2023-02-11T04:45:45;5.60;99.90
64869;DHT22;51349;52.424;10.840;2023-02-11T04:50:46;5.60;99.90
64869;DHT22;51349;52.424;10.840;2023-02-11T04:55:49;5.60;99.90
64869;DHT22;51349;52.424;10.840;2023-02-11T05:00:50;5.60;99.90
64869;DHT22;51349;52.424;10.840;2023-02-11T05:05:51;5.60;99.90
64869;DHT22;51349;52.424;10.840;2023-02-11T05:10:51;5.60;99.90
64869;DHT22;51349;52.424;10.840;2023-02-11T05:15:53;5.60;99.90
64869;DHT22;51349;52.424;10.840;2023-02-11T05:20:54;5.60;99.90
64869;DHT22;51349;52.424;10.840;2023-02-11T05:25:54;5.60;99.90
64869;DHT22;51349;52.424;10.840;2023-02-11T05:30:55;5.60;99.90
64869;DHT22;51349;52.424;10.840;2023-02-11T05:36:06;5.60;99.90
64869;DHT22;51349;52.424;10.840;2023-02-11T05:41:09;5.70;99.90
64869;DHT22;51349;52.424;10.840;2023-02-11T05:46:09;5.70;99.90
64869;DHT22;51349;52.424;10.840;2023-02-11T05:51:10;5.70;99.90
64869;DHT22;51349;52.424;10.840;2023-02-11T05:56:11;5.70;99.90
64869;DHT22;51349;52.424;10.840;2023-02-11T06:01:13;5.70;99.90
64869;DHT22;51349;52.424;10.840;2023-02-11T06:06:14;5.70;99.90
64869;DHT22;51349;52.424;10.840;2023-02-11T06:11:16;5.80;99.90
64869;DHT22;51349;52.424;10.840;2023-02-11T06:16:16;5.70;99.90
64869;DHT22;51349;52.424;10.840;2023-02-11T06:21:17;5.70;99.90
64869;DHT22;51349;52.424;10.840;2023-02-11T06:26:20;5.80;99.90
64869;DHT22;51349;52.424;10.840;2023-02-11T06:31:21;5.80;99.90
64869;DHT22;51349;52.424;10.840;2023-02-11T06:36:21;5.80;99.90
64869;DHT22;51349;52.424;10.840;2023-02-11T06:41:22;5.80;99.90
64869;DHT22;51349;52.424;10.840;2023-02-11T06:46:23;5.80;99.90
64869;DHT22;51349;52.424;10.840;2023-02-11T06:51:24;5.80;99.90
64869;DHT22;51349;52.424;10.840;2023-02-11T06:56:24;5.90;99.90
64869;DHT22;51349;52.424;10.840;2023-02-11T07:01:28;5.90;99.90
64869;DHT22;51349;52.424;10.840;2023-02-11T07:06:28;6.00;99.90
64869;DHT22;51349;52.424;10.840;2023-02-11T07:11:30;6.00;99.90
64869;DHT22;51349;52.424;10.840;2023-02-11T07:16:31;6.00;99.90
64869;DHT22;51349;52.424;10.840;2023-02-11T07:21:31;6.10;99.90
64869;DHT22;51349;52.424;10.840;2023-02-11T07:26:32;6.10;99.90
64869;DHT22;51349;52.424;10.840;2023-02-11T07:31:33;6.10;99.90
64869;DHT22;51349;52.424;10.840;2023-02-11T07:36:33;6.10;99.90
64869;DHT22;51349;52.424;10.840;2023-02-11T07:41:34;6.20;99.90
64869;DHT22;51349;52.424;10.840;2023-02-11T07:46:34;6.20;99.90
64869;DHT22;51349;52.424;10.840;2023-02-11T07:51:35;6.20;99.90
64869;DHT22;51349;52.424;10.840;2023-02-11T07:56:36;6.20;99.90
64869;DHT22;51349;52.424;10.840;2023-02-11T08:01:37;6.30;99.90
64869;DHT22;51349;52.424;10.840;2023-02-11T08:06:40;6.30;99.90
64869;DHT22;51349;52.424;10.840;2023-02-11T08:11:42;6.30;99.90
64869;DHT22;51349;52.424;10.840;2023-02-11T08:16:43;6.30;99.90
64869;DHT22;51349;52.424;10.840;2023-02-11T08:21:44;6.30;99.90
64869;DHT22;51349;52.424;10.840;2023-02-11T08:26:45;6.40;99.90
64869;DHT22;51349;52.424;10.840;2023-02-11T08:31:46;6.40;99.90
64869;DHT22;51349;52.424;10.840;2023-02-11T08:36:47;6.50;99.90
64869;DHT22;51349;52.424;10.840;2023-02-11T08:41:52;6.50;99.90
64869;DHT22;51349;52.424;10.840;2023-02-11T08:46:53;6.50;99.90
64869;DHT22;51349;52.424;10.840;2023-02-11T08:51:54;6.50;99.90
64869;DHT22;51349;52.424;10.840;2023-02-11T08:56:56;6.50;99.90
64869;DHT22;51349;52.424;10.840;2023-02-11T09:01:56;6.50;99.90
64869;DHT22;51349;52.424;10.840;2023-02-11T09:06:57;6.60;99.90
64869;DHT22;51349;52.424;10.840;2023-02-11T09:11:58;6.60;99.90
64869;DHT22;51349;52.424;10.840;2023-02-11T09:17:00;6.60;99.90
64869;DHT22;51349;52.424;10.840;2023-02-11T09:22:01;6.60;99.90
64869;DHT22;51349;52.424;10.840;2023-02-11T09:27:01;6.60;99.90
64869;DHT22;51349;52.424;10.840;2023-02-11T09:32:02;6.60;99.90
64869;DHT22;51349;52.424;10.840;2023-02-11T09:37:03;6.70;99.90
64869;DHT22;51349;52.424;10.840;2023-02-11T09:47:31;6.70;99.90
64869;DHT22;51349;52.424;10.840;2023-02-11T09:52:35;6.70;99.90
64869;DHT22;51349;52.424;10.840;2023-02-11T09:57:36;6.70;99.90
64869;DHT22;51349;52.424;10.840;2023-02-11T10:08:27;6.80;99.90
64869;DHT22;51349;52.424;10.840;2023-02-11T10:19:18;6.80;99.90
64869;DHT22;51349;52.424;10.840;2023-02-11T10:24:22;6.80;99.90
64869;DHT22;51349;52.424;10.840;2023-02-11T10:30:00;6.80;99.90
64869;DHT22;51349;52.424;10.840;2023-02-11T10:35:09;6.80;99.90
64869;DHT22;51349;52.424;10.840;2023-02-11T10:40:23;6.80;99.90
64869;DHT22;51349;52.424;10.840;2023-02-11T10:50:33;6.80;99.90
64869;DHT22;51349;52.424;10.840;2023-02-11T10:55:35;6.90;99.90
64869;DHT22;51349;52.424;10.840;2023-02-11T11:00:37;6.90;99.90
64869;DHT22;51349;52.424;10.840;2023-02-11T11:06:03;6.80;99.90
64869;DHT22;51349;52.424;10.840;2023-02-11T11:11:07;6.90;99.90
64869;DHT22;51349;52.424;10.840;2023-02-11T11:26:13;6.90;99.90
64869;DHT22;51349;52.424;10.840;2023-02-11T11:31:21;7.00;99.90
64869;DHT22;51349;52.424;10.840;2023-02-11T11:36:29;7.00;99.90
64869;DHT22;51349;52.424;10.840;2023-02-11T11:41:33;7.00;99.90
64869;DHT22;51349;52.424;10.840;2023-02-11T11:46:37;7.00;99.90
64869;DHT22;51349;52.424;10.840;2023-02-11T11:51:41;7.00;99.90
64869;DHT22;51349;52.424;10.840;2023-02-11T11:56:52;6.90;99.90
64869;DHT22;51349;52.424;10.840;2023-02-11T12:02:18;7.00;99.90
64869;DHT22;51349;52.424;10.840;2023-02-11T12:07:37;7.00;99.90
64869;DHT22;51349;52.424;10.840;2023-02-11T12:39:43;7.10;99.90
64869;DHT22;51349;52.424;10.840;2023-02-11T12:55:28;7.20;99.90
64869;DHT22;51349;52.424;10.840;2023-02-11T13:05:45;7.30;99.90
64869;DHT22;51349;52.424;10.840;2023-02-11T13:10:54;7.30;99.90
64869;DHT22;51349;52.424;10.840;2023-02-11T13:16:03;7.30;99.90
64869;DHT22;51349;52.424;10.840;2023-02-11T13:26:27;7.40;99.90
64869;DHT22;51349;52.424;10.840;2023-02-11T13:31:29;7.40;99.90
64869;DHT22;51349;52.424;10.840;2023-02-11T13:36:31;7.40;99.90
64869;DHT22;51349;52.424;10.840;2023-02-11T13:41:40;7.50;99.90
64869;DHT22;51349;52.424;10.840;2023-02-11T13:51:56;7.50;99.90
64869;DHT22;51349;52.424;10.840;2023-02-11T14:02:29;7.60;99.90
64869;DHT22;51349;52.424;10.840;2023-02-11T14:13:34;7.70;99.90
64869;DHT22;51349;52.424;10.840;2023-02-11T14:18:37;7.70;99.90
64869;DHT22;51349;52.424;10.840;2023-02-11T14:23:39;7.70;99.90
64869;DHT22;51349;52.424;10.840;2023-02-11T14:28:41;7.70;99.90
64869;DHT22;51349;52.424;10.840;2023-02-11T14:44:20;7.70;99.90
64869;DHT22;51349;52.424;10.840;2023-02-11T14:49:28;7.70;99.90
64869;DHT22;51349;52.424;10.840;2023-02-11T14:54:31;7.70;99.90
64869;DHT22;51349;52.424;10.840;2023-02-11T14:59:32;7.70;99.90
64869;DHT22;51349;52.424;10.840;2023-02-11T15:04:33;7.70;99.90
64869;DHT22;51349;52.424;10.840;2023-02-11T15:09:52;7.60;99.90
64869;DHT22;51349;52.424;10.840;2023-02-11T15:14:56;7.60;99.90
64869;DHT22;51349;52.424;10.840;2023-02-11T15:19:59;7.50;99.90
64869;DHT22;51349;52.424;10.840;2023-02-11T15:25:11;7.50;99.90
64869;DHT22;51349;52.424;10.840;2023-02-11T15:35:29;7.50;99.90
64869;DHT22;51349;52.424;10.840;2023-02-11T15:40:32;7.50;99.90
64869;DHT22;51349;52.424;10.840;2023-02-11T15:45:58;7.50;99.90
64869;DHT22;51349;52.424;10.840;2023-02-11T15:51:26;7.50;99.90
64869;DHT22;51349;52.424;10.840;2023-02-11T15:56:43;7.50;99.90
64869;DHT22;51349;52.424;10.840;2023-02-11T16:01:45;7.50;99.90
64869;DHT22;51349;52.424;10.840;2023-02-11T16:06:46;7.50;99.90
64869;DHT22;51349;52.424;10.840;2023-02-11T16:16:53;7.50;99.90
64869;DHT22;51349;52.424;10.840;2023-02-11T16:21:56;7.60;99.90
64869;DHT22;51349;52.424;10.840;2023-02-11T16:32:22;7.50;99.90
64869;DHT22;51349;52.424;10.840;2023-02-11T16:37:24;7.60;99.90
64869;DHT22;51349;52.424;10.840;2023-02-11T16:42:25;7.60;99.90
64869;DHT22;51349;52.424;10.840;2023-02-11T16:47:27;7.60;99.90
64869;DHT22;51349;52.424;10.840;2023-02-11T16:52:28;7.50;99.90
64869;DHT22;51349;52.424;10.840;2023-02-11T16:57:31;7.50;99.90
64869;DHT22;51349;52.424;10.840;2023-02-11T17:02:36;7.50;99.90
64869;DHT22;51349;52.424;10.840;2023-02-11T17:07:37;7.40;99.90
64869;DHT22;51349;52.424;10.840;2023-02-11T17:12:38;7.40;99.90
64869;DHT22;51349;52.424;10.840;2023-02-11T17:17:38;7.40;99.90
64869;DHT22;51349;52.424;10.840;2023-02-11T17:22:39;7.40;99.90
64869;DHT22;51349;52.424;10.840;2023-02-11T17:27:40;7.40;99.90
64869;DHT22;51349;52.424;10.840;2023-02-11T17:32:41;7.40;99.90
64869;DHT22;51349;52.424;10.840;2023-02-11T17:37:42;7.40;99.90
64869;DHT22;51349;52.424;10.840;2023-02-11T17:42:43;7.40;99.90
64869;DHT22;51349;52.424;10.840;2023-02-11T17:47:43;7.40;99.90
64869;DHT22;51349;52.424;10.840;2023-02-11T17:52:44;7.40;99.90
64869;DHT22;51349;52.424;10.840;2023-02-11T17:57:44;7.40;99.90
64869;DHT22;51349;52.424;10.840;2023-02-11T18:02:45;7.40;99.90
64869;DHT22;51349;52.424;10.840;2023-02-11T18:07:46;7.40;99.90
64869;DHT22;51349;52.424;10.840;2023-02-11T18:12:47;7.40;99.90
64869;DHT22;51349;52.424;10.840;2023-02-11T18:17:48;7.40;99.90
64869;DHT22;51349;52.424;10.840;2023-02-11T18:22:49;7.40;99.90
64869;DHT22;51349;52.424;10.840;2023-02-11T18:27:49;7.40;99.90
64869;DHT22;51349;52.424;10.840;2023-02-11T18:32:54;7.40;99.90
64869;DHT22;51349;52.424;10.840;2023-02-11T18:37:55;7.40;99.90
64869;DHT22;51349;52.424;10.840;2023-02-11T18:42:56;7.40;99.90
64869;DHT22;51349;52.424;10.840;2023-02-11T18:47:56;7.40;99.90
64869;DHT22;51349;52.424;10.840;2023-02-11T18:53:01;7.40;99.90
64869;DHT22;51349;52.424;10.840;2023-02-11T18:58:01;7.40;99.90
64869;DHT22;51349;52.424;10.840;2023-02-11T19:03:02;7.40;99.90
64869;DHT22;51349;52.424;10.840;2023-02-11T19:08:03;7.40;99.90
64869;DHT22;51349;52.424;10.840;2023-02-11T19:13:04;7.40;99.90
64869;DHT22;51349;52.424;10.840;2023-02-11T19:18:04;7.40;99.90
64869;DHT22;51349;52.424;10.840;2023-02-11T19:23:05;7.40;99.90
64869;DHT22;51349;52.424;10.840;2023-02-11T19:28:06;7.40;99.90
64869;DHT22;51349;52.424;10.840;2023-02-11T19:33:07;7.40;99.90
64869;DHT22;51349;52.424;10.840;2023-02-11T19:38:07;7.50;99.90
64869;DHT22;51349;52.424;10.840;2023-02-11T19:43:08;7.50;99.90
64869;DHT22;51349;52.424;10.840;2023-02-11T19:48:11;7.50;99.90
64869;DHT22;51349;52.424;10.840;2023-02-11T19:53:12;7.50;99.90
64869;DHT22;51349;52.424;10.840;2023-02-11T19:58:13;7.50;99.90
64869;DHT22;51349;52.424;10.840;2023-02-11T20:03:14;7.50;99.90
64869;DHT22;51349;52.424;10.840;2023-02-11T20:08:17;7.50;99.90
64869;DHT22;51349;52.424;10.840;2023-02-11T20:13:18;7.50;99.90
64869;DHT22;51349;52.424;10.840;2023-02-11T20:18:19;7.40;99.90
64869;DHT22;51349;52.424;10.840;2023-02-11T20:23:20;7.50;99.90
64869;DHT22;51349;52.424;10.840;2023-02-11T20:28:21;7.40;99.90
64869;DHT22;51349;52.424;10.840;2023-02-11T20:33:22;7.50;99.90
64869;DHT22;51349;52.424;10.840;2023-02-11T20:38:23;7.50;99.90
64869;DHT22;51349;52.424;10.840;2023-02-11T20:43:24;7.50;99.90
64869;DHT22;51349;52.424;10.840;2023-02-11T20:48:24;7.50;99.90
64869;DHT22;51349;52.424;10.840;2023-02-11T20:53:25;7.50;99.90
64869;DHT22;51349;52.424;10.840;2023-02-11T20:58:26;7.50;99.90
64869;DHT22;51349;52.424;10.840;2023-02-11T21:03:26;7.50;99.90
64869;DHT22;51349;52.424;10.840;2023-02-11T21:08:27;7.50;99.90
64869;DHT22;51349;52.424;10.840;2023-02-11T21:13:28;7.50;99.90
64869;DHT22;51349;52.424;10.840;2023-02-11T21:18:28;7.50;99.90
64869;DHT22;51349;52.424;10.840;2023-02-11T21:23:29;7.50;99.90
64869;DHT22;51349;52.424;10.840;2023-02-11T21:28:30;7.50;99.90
64869;DHT22;51349;52.424;10.840;2023-02-11T21:33:31;7.50;99.90
64869;DHT22;51349;52.424;10.840;2023-02-11T21:38:35;7.50;99.90
64869;DHT22;51349;52.424;10.840;2023-02-11T21:43:36;7.50;99.90
64869;DHT22;51349;52.424;10.840;2023-02-11T21:48:36;7.50;99.90
64869;DHT22;51349;52.424;10.840;2023-02-11T21:53:37;7.50;99.90
64869;DHT22;51349;52.424;10.840;2023-02-11T21:58:38;7.50;99.90
64869;DHT22;51349;52.424;10.840;2023-02-11T22:03:39;7.50;99.90
64869;DHT22;51349;52.424;10.840;2023-02-11T22:08:40;7.50;99.90
64869;DHT22;51349;52.424;10.840;2023-02-11T22:13:41;7.50;99.90
64869;DHT22;51349;52.424;10.840;2023-02-11T22:18:45;7.50;99.90
64869;DHT22;51349;52.424;10.840;2023-02-11T22:23:46;7.50;99.90
64869;DHT22;51349;52.424;10.840;2023-02-11T22:28:47;7.50;99.90
64869;DHT22;51349;52.424;10.840;2023-02-11T22:33:48;7.60;99.90
64869;DHT22;51349;52.424;10.840;2023-02-11T22:38:49;7.60;99.90
64869;DHT22;51349;52.424;10.840;2023-02-11T22:43:50;7.60;99.90
64869;DHT22;51349;52.424;10.840;2023-02-11T22:48:51;7.60;99.90
64869;DHT22;51349;52.424;10.840;2023-02-11T22:54:13;7.60;99.90
64869;DHT22;51349;52.424;10.840;2023-02-11T22:59:14;7.60;99.90
64869;DHT22;51349;52.424;10.840;2023-02-11T23:04:16;7.60;99.90
64869;DHT22;51349;52.424;10.840;2023-02-11T23:09:18;7.60;99.90
64869;DHT22;51349;52.424;10.840;2023-02-11T23:14:19;7.60;99.90
64869;DHT22;51349;52.424;10.840;2023-02-11T23:19:19;7.60;99.90
64869;DHT22;51349;52.424;10.840;2023-02-11T23:24:20;7.60;99.90
64869;DHT22;51349;52.424;10.840;2023-02-11T23:29:21;7.60;99.90
64869;DHT22;51349;52.424;10.840;2023-02-11T23:34:21;7.60;99.90
64869;DHT22;51349;52.424;10.840;2023-02-11T23:39:25;7.60;99.90
64869;DHT22;51349;52.424;10.840;2023-02-11T23:44:26;7.60;99.90
64869;DHT22;51349;52.424;10.840;2023-02-11T23:49:27;7.60;99.90
64869;DHT22;51349;52.424;10.840;2023-02-11T23:54:27;7.60;99.90
64869;DHT22;51349;52.424;10.840;2023-02-11T23:59:28;7.60;99.90
